createdAt,value
2023-04-18T00:01:23.998Z,82.54
2023-04-18T00:03:51.026Z,82.37
2023-04-18T00:06:17.904Z,82.30
2023-04-18T00:08:44.612Z,82.36
2023-04-18T00:11:11.244Z,82.50
2023-04-18T00:13:39.427Z,82.54
2023-04-18T00:16:07.862Z,82.32
2023-04-18T00:18:36.838Z,82.54
2023-04-18T00:21:04.405Z,82.75
2023-04-18T00:23:31.201Z,82.81
2023-04-18T00:25:57.826Z,82.68
2023-04-18T00:28:24.564Z,82.69
2023-04-18T00:30:51.264Z,82.74
2023-04-18T00:33:17.974Z,82.39
2023-04-18T00:35:44.604Z,82.30
2023-04-18T00:38:11.251Z,82.11
2023-04-18T00:40:38.846Z,82.29
2023-04-18T00:43:07.715Z,82.37
2023-04-18T00:45:34.449Z,82.43
2023-04-18T00:48:01.113Z,82.50
2023-04-18T00:50:27.753Z,82.49
2023-04-18T00:52:54.370Z,82.42
2023-04-18T00:55:20.982Z,82.20
2023-04-18T00:57:47.642Z,82.08
2023-04-18T01:00:15.207Z,82.24
2023-04-18T01:02:42.079Z,82.69
2023-04-18T01:05:09.002Z,82.42
2023-04-18T01:07:37.369Z,82.70
2023-04-18T01:10:04.413Z,82.86
2023-04-18T01:12:31.396Z,83.09
2023-04-18T01:14:58.905Z,83.27
2023-04-18T01:17:28.380Z,83.59
2023-04-18T01:19:55.062Z,83.94
2023-04-18T01:22:21.705Z,84.22
2023-04-18T01:24:48.359Z,84.47
2023-04-18T01:27:14.977Z,84.65
2023-04-18T01:29:41.632Z,84.81
2023-04-18T01:32:08.296Z,84.98
2023-04-18T01:34:34.972Z,85.15
2023-04-18T01:37:01.655Z,85.28
2023-04-18T01:39:28.644Z,85.47
2023-04-18T01:41:55.305Z,85.51
2023-04-18T01:44:22.045Z,85.46
2023-04-18T01:46:48.731Z,85.37
2023-04-18T01:49:16.086Z,85.31
2023-04-18T01:51:43.935Z,85.35
2023-04-18T01:54:10.626Z,85.34
2023-04-18T01:56:37.278Z,85.17
2023-04-18T01:59:03.952Z,84.84
2023-04-18T02:01:30.745Z,84.49
2023-04-18T02:03:57.631Z,84.49
2023-04-18T02:06:24.500Z,84.41
2023-04-18T02:08:51.158Z,84.35
2023-04-18T02:11:17.762Z,84.45
2023-04-18T02:13:44.418Z,84.34
2023-04-18T02:16:12.929Z,84.46
2023-04-18T02:18:40.252Z,84.41
2023-04-18T02:21:07.274Z,84.39
2023-04-18T02:23:33.886Z,84.31
2023-04-18T02:26:00.515Z,84.05
2023-04-18T02:28:27.164Z,83.99
2023-04-18T02:30:53.785Z,83.96
2023-04-18T02:33:20.470Z,84.07
2023-04-18T02:35:47.270Z,84.03
2023-04-18T02:38:13.943Z,83.92
2023-04-18T02:40:40.576Z,83.83
2023-04-18T02:43:07.280Z,83.83
2023-04-18T02:45:33.951Z,83.70
2023-04-18T02:48:01.271Z,83.66
2023-04-18T02:50:29.167Z,83.76
2023-04-18T02:52:56.194Z,83.98
2023-04-18T02:55:22.842Z,83.95
2023-04-18T02:57:49.654Z,83.79
2023-04-18T03:00:16.387Z,83.62
2023-04-18T03:02:43.174Z,83.47
2023-04-18T03:05:10.073Z,83.19
2023-04-18T03:07:36.803Z,83.05
2023-04-18T03:10:03.788Z,83.05
2023-04-18T03:12:30.671Z,82.96
2023-04-18T03:14:57.281Z,82.82
2023-04-18T03:17:23.941Z,82.83
2023-04-18T03:19:50.696Z,82.96
2023-04-18T03:22:17.750Z,83.16
2023-04-18T03:24:44.409Z,83.57
2023-04-18T03:27:11.630Z,83.48
2023-04-18T03:29:38.619Z,83.56
2023-04-18T03:32:05.361Z,83.84
2023-04-18T03:34:31.996Z,84.03
2023-04-18T03:36:58.702Z,84.01
2023-04-18T03:39:25.319Z,83.94
2023-04-18T03:41:52.623Z,84.04
2023-04-18T03:44:19.261Z,84.04
2023-04-18T03:46:45.937Z,83.95
2023-04-18T03:49:12.686Z,84.00
2023-04-18T03:51:47.987Z,84.08
2023-04-18T03:54:15.821Z,84.14
2023-04-18T03:56:42.745Z,84.42
2023-04-18T03:59:09.684Z,84.55
2023-04-18T04:01:36.438Z,84.58
2023-04-18T04:04:03.827Z,84.58
2023-04-18T04:06:32.181Z,84.74
2023-04-18T04:08:58.913Z,84.80
2023-04-18T04:11:25.996Z,84.78
2023-04-18T04:13:52.771Z,84.67
2023-04-18T04:16:19.493Z,84.65
2023-04-18T04:18:46.225Z,84.68
2023-04-18T04:21:12.948Z,84.61
2023-04-18T04:23:42.168Z,84.58
2023-04-18T04:26:09.255Z,84.54
2023-04-18T04:28:36.165Z,84.38
2023-04-18T04:31:03.520Z,84.26
2023-04-18T04:33:33.302Z,84.37
2023-04-18T04:36:01.269Z,84.30
2023-04-18T04:38:31.137Z,84.04
2023-04-18T04:40:58.347Z,84.12
2023-04-18T04:43:25.570Z,84.08
2023-04-18T04:45:53.268Z,84.01
2023-04-18T04:48:22.113Z,83.90
2023-04-18T04:50:52.928Z,83.91
2023-04-18T04:53:19.681Z,83.64
2023-04-18T04:55:46.360Z,83.72
2023-04-18T04:58:13.060Z,83.32
2023-04-18T05:00:39.704Z,83.24
2023-04-18T05:03:07.202Z,83.25
2023-04-18T05:05:33.969Z,83.56
2023-04-18T05:08:00.623Z,83.60
2023-04-18T05:10:27.259Z,83.50
2023-04-18T05:12:53.942Z,83.39
2023-04-18T05:15:20.780Z,83.44
2023-04-18T05:17:47.479Z,83.32
2023-04-18T05:20:14.262Z,83.51
2023-04-18T05:22:40.977Z,83.61
2023-04-18T05:25:08.335Z,83.32
2023-04-18T05:27:35.038Z,83.00
2023-04-18T05:30:01.696Z,82.54
2023-04-18T05:32:28.369Z,82.52
2023-04-18T05:34:55.103Z,82.52
2023-04-18T05:37:22.567Z,81.90
2023-04-18T05:39:49.204Z,82.57
2023-04-18T05:42:15.878Z,82.06
2023-04-18T05:44:42.542Z,81.70
2023-04-18T05:47:09.211Z,81.65
2023-04-18T05:49:36.034Z,81.79
2023-04-18T05:52:02.683Z,81.29
2023-04-18T05:54:29.329Z,81.51
2023-04-18T05:57:04.386Z,81.37
2023-04-18T05:59:31.292Z,81.04
2023-04-18T06:01:58.038Z,81.05
2023-04-18T06:04:24.980Z,81.03
2023-04-18T06:06:51.873Z,81.65
2023-04-18T06:09:18.486Z,81.81
2023-04-18T06:11:45.228Z,81.71
2023-04-18T06:14:12.223Z,81.11
2023-04-18T06:16:39.201Z,80.55
2023-04-18T06:19:05.929Z,80.78
2023-04-18T06:21:32.680Z,80.56
2023-04-18T06:24:01.323Z,80.38
2023-04-18T06:26:28.042Z,80.46
2023-04-18T06:28:54.694Z,80.80
2023-04-18T06:31:21.477Z,81.83
2023-04-18T06:33:48.210Z,82.35
2023-04-18T06:36:14.896Z,81.96
2023-04-18T06:38:41.490Z,81.95
2023-04-18T06:41:08.172Z,82.54
2023-04-18T06:43:36.232Z,83.04
2023-04-18T06:46:04.674Z,83.34
2023-04-18T06:48:31.463Z,82.54
2023-04-18T06:50:58.112Z,82.67
2023-04-18T06:53:24.795Z,82.87
2023-04-18T06:55:51.663Z,82.25
2023-04-18T06:58:18.319Z,81.61
2023-04-18T07:00:47.666Z,80.16
2023-04-18T07:03:14.593Z,81.41
2023-04-18T07:05:41.329Z,80.63
2023-04-18T07:08:08.029Z,82.62
2023-04-18T07:10:34.704Z,82.66
2023-04-18T07:13:01.421Z,81.60
2023-04-18T07:15:28.183Z,80.51
2023-04-18T07:17:54.934Z,79.84
2023-04-18T07:20:21.794Z,79.58
2023-04-18T07:22:48.775Z,78.91
2023-04-18T07:25:15.547Z,78.71
2023-04-18T07:27:42.448Z,79.31
2023-04-18T07:30:09.582Z,78.93
2023-04-18T07:32:36.298Z,78.52
2023-04-18T07:35:03.463Z,79.81
2023-04-18T07:37:30.141Z,80.35
2023-04-18T07:39:56.805Z,80.04
2023-04-18T07:42:23.464Z,80.70
2023-04-18T07:44:50.150Z,80.07
2023-04-18T07:47:17.231Z,80.61
2023-04-18T07:49:43.874Z,80.08
2023-04-18T07:52:10.786Z,79.72
2023-04-18T07:54:37.470Z,79.92
2023-04-18T07:57:04.156Z,79.85
2023-04-18T07:59:32.265Z,80.47
2023-04-18T08:01:59.006Z,80.27
2023-04-18T08:04:28.207Z,78.76
2023-04-18T08:06:56.524Z,79.18
2023-04-18T08:09:23.242Z,79.25
2023-04-18T08:11:49.947Z,78.21
2023-04-18T08:14:16.625Z,77.72
2023-04-18T08:16:43.412Z,75.55
2023-04-18T08:19:10.146Z,74.90
2023-04-18T08:21:36.751Z,74.76
2023-04-18T08:24:03.417Z,74.05
2023-04-18T08:26:30.085Z,75.10
2023-04-18T08:28:56.807Z,75.20
2023-04-18T08:31:23.506Z,75.34
2023-04-18T08:33:50.281Z,75.66
2023-04-18T08:36:17.050Z,75.22
2023-04-18T08:38:43.703Z,76.16
2023-04-18T08:41:10.327Z,75.12
2023-04-18T08:43:37.767Z,75.87
2023-04-18T08:46:04.498Z,74.66
2023-04-18T08:48:31.502Z,74.76
2023-04-18T08:50:58.742Z,74.23
2023-04-18T08:53:26.761Z,74.25
2023-04-18T08:55:54.772Z,75.56
2023-04-18T08:58:25.647Z,75.64
2023-04-18T09:00:53.230Z,75.45
2023-04-18T09:03:37.626Z,76.23
2023-04-18T09:06:16.414Z,76.19
2023-04-18T09:08:46.456Z,76.37
2023-04-18T09:11:29.975Z,76.06
2023-04-18T09:13:58.899Z,76.25
2023-04-18T09:16:27.614Z,76.50
2023-04-18T09:19:14.448Z,76.92
2023-04-18T09:21:41.915Z,76.98
2023-04-18T09:24:24.906Z,77.00
2023-04-18T09:26:53.836Z,77.04
2023-04-18T09:29:23.853Z,77.03
2023-04-18T09:32:01.153Z,77.25
2023-04-18T09:34:28.724Z,76.79
2023-04-18T09:37:11.691Z,77.59
2023-04-18T09:39:39.537Z,76.98
2023-04-18T09:42:06.338Z,77.88
2023-04-18T09:44:33.074Z,77.92
2023-04-18T09:47:00.507Z,77.51
2023-04-18T09:49:27.385Z,78.17
2023-04-18T09:51:54.936Z,78.85
2023-04-18T09:54:23.746Z,79.49
2023-04-18T09:56:51.764Z,80.53
2023-04-18T09:59:25.757Z,80.95
2023-04-18T10:01:52.421Z,81.07
2023-04-18T10:04:19.205Z,80.90
2023-04-18T10:06:45.989Z,80.50
2023-04-18T10:09:12.836Z,80.54
2023-04-18T10:11:39.631Z,80.29
2023-04-18T10:14:10.454Z,80.32
2023-04-18T10:16:37.503Z,80.79
2023-04-18T10:19:24.400Z,80.91
2023-04-18T10:21:53.953Z,80.85
2023-04-18T10:24:47.191Z,80.77
2023-04-18T10:27:14.015Z,81.12
2023-04-18T10:29:50.702Z,82.13
2023-04-18T10:32:18.812Z,82.69
2023-04-18T10:34:49.368Z,82.00
2023-04-18T10:37:16.062Z,81.86
2023-04-18T10:40:00.474Z,81.36
2023-04-18T10:42:45.700Z,81.03
2023-04-18T10:45:22.135Z,81.12
2023-04-18T10:47:49.084Z,81.67
2023-04-18T10:50:16.112Z,81.93
2023-04-18T10:52:43.488Z,81.67
2023-04-18T10:55:20.876Z,81.63
2023-04-18T10:57:48.466Z,81.62
2023-04-18T11:00:18.974Z,82.12
2023-04-18T11:03:00.403Z,82.16
2023-04-18T11:05:28.264Z,82.11
2023-04-18T11:07:55.064Z,82.59
2023-04-18T11:10:23.795Z,83.48
2023-04-18T11:12:50.469Z,84.39
2023-04-18T11:15:22.262Z,84.37
2023-04-18T11:18:02.652Z,82.82
2023-04-18T11:20:30.284Z,82.69
2023-04-18T11:22:57.744Z,83.90
2023-04-18T11:25:32.101Z,83.88
2023-04-18T11:27:59.817Z,83.43
2023-04-18T11:30:26.586Z,81.59
2023-04-18T11:32:54.296Z,83.27
2023-04-18T11:35:21.032Z,83.81
2023-04-18T11:37:50.020Z,84.36
2023-04-18T11:40:16.745Z,84.88
2023-04-18T11:42:43.451Z,84.96
2023-04-18T11:45:12.334Z,84.15
2023-04-18T11:47:39.201Z,83.61
2023-04-18T11:50:06.943Z,82.38
2023-04-18T11:52:34.247Z,81.13
2023-04-18T11:55:13.095Z,80.45
2023-04-18T11:57:40.100Z,80.25
2023-04-18T12:00:08.725Z,80.72
2023-04-18T12:02:43.383Z,79.37
2023-04-18T12:05:15.052Z,78.28
2023-04-18T12:07:42.753Z,79.39
2023-04-18T12:10:26.289Z,79.29
2023-04-18T12:12:54.592Z,79.23
2023-04-18T12:15:24.055Z,79.28
2023-04-18T12:17:53.530Z,78.84
2023-04-18T12:20:20.320Z,79.44
2023-04-18T12:22:49.663Z,78.79
2023-04-18T12:25:24.323Z,78.70
2023-04-18T12:28:04.180Z,78.84
2023-04-18T12:30:32.203Z,78.65
2023-04-18T12:33:00.224Z,78.77
2023-04-18T12:35:27.358Z,79.34
2023-04-18T12:37:55.769Z,79.62
2023-04-18T12:40:23.099Z,77.92
2023-04-18T12:42:50.622Z,78.32
2023-04-18T12:45:17.711Z,78.31
2023-04-18T12:47:45.846Z,78.87
2023-04-18T12:50:16.141Z,78.45
2023-04-18T12:52:42.846Z,78.02
2023-04-18T12:55:09.756Z,77.87
2023-04-18T12:57:36.572Z,78.23
2023-04-18T13:00:06.605Z,79.13
2023-04-18T13:02:35.388Z,80.52
2023-04-18T13:05:02.381Z,80.41
2023-04-18T13:07:29.210Z,79.24
2023-04-18T13:09:55.893Z,79.92
2023-04-18T13:12:22.580Z,81.39
2023-04-18T13:14:49.287Z,81.38
2023-04-18T13:17:15.961Z,81.61
2023-04-18T13:19:42.581Z,82.06
2023-04-18T13:22:09.348Z,81.08
2023-04-18T13:24:37.085Z,79.80
2023-04-18T13:27:10.272Z,79.83
2023-04-18T13:29:38.471Z,80.80
2023-04-18T13:32:06.191Z,78.63
2023-04-18T13:34:34.298Z,77.01
2023-04-18T13:37:01.398Z,75.50
2023-04-18T13:39:28.041Z,77.50
2023-04-18T13:41:55.077Z,78.36
2023-04-18T13:44:21.782Z,78.43
2023-04-18T13:46:48.968Z,78.96
2023-04-18T13:49:15.933Z,77.15
2023-04-18T13:51:42.740Z,78.23
2023-04-18T13:54:09.405Z,78.82
2023-04-18T13:56:36.137Z,79.99
2023-04-18T13:59:02.859Z,78.73
2023-04-18T14:01:29.596Z,79.24
2023-04-18T14:03:56.431Z,78.99
2023-04-18T14:06:23.449Z,78.77
2023-04-18T14:08:51.193Z,79.14
2023-04-18T14:11:17.890Z,78.81
2023-04-18T14:13:44.504Z,78.31
2023-04-18T14:16:11.189Z,79.07
2023-04-18T14:18:38.559Z,78.55
2023-04-18T14:21:05.273Z,78.88
2023-04-18T14:23:32.027Z,78.71
2023-04-18T14:25:58.630Z,78.72
2023-04-18T14:28:25.491Z,78.91
2023-04-18T14:30:52.220Z,78.77
2023-04-18T14:33:18.899Z,79.37
2023-04-18T14:35:45.989Z,79.30
2023-04-18T14:38:12.760Z,80.00
2023-04-18T14:40:39.537Z,80.74
2023-04-18T14:43:06.200Z,79.37
2023-04-18T14:45:34.019Z,80.54
2023-04-18T14:48:01.288Z,81.10
2023-04-18T14:50:28.022Z,81.20
2023-04-18T14:52:54.625Z,80.08
2023-04-18T14:55:21.309Z,79.28
2023-04-18T14:57:47.973Z,78.61
2023-04-18T15:00:15.608Z,78.73
2023-04-18T15:02:42.532Z,78.37
2023-04-18T15:05:10.268Z,79.07
2023-04-18T15:07:38.006Z,80.34
2023-04-18T15:10:05.352Z,80.02
2023-04-18T15:12:32.507Z,79.53
2023-04-18T15:15:02.179Z,79.69
2023-04-18T15:17:29.364Z,80.98
2023-04-18T15:19:56.062Z,80.91
2023-04-18T15:22:22.915Z,81.03
2023-04-18T15:24:49.704Z,80.86
2023-04-18T15:27:16.380Z,80.78
2023-04-18T15:29:43.082Z,80.69
2023-04-18T15:32:10.298Z,81.30
2023-04-18T15:34:37.115Z,81.48
2023-04-18T15:37:04.598Z,81.48
2023-04-18T15:39:31.464Z,81.01
2023-04-18T15:41:58.075Z,81.04
2023-04-18T15:44:24.766Z,81.15
2023-04-18T15:46:51.845Z,80.74
2023-04-18T15:49:18.520Z,81.33
2023-04-18T15:51:45.140Z,81.57
2023-04-18T15:54:12.045Z,82.12
2023-04-18T15:56:39.120Z,82.45
2023-04-18T15:59:06.215Z,82.43
2023-04-18T16:01:33.410Z,81.67
2023-04-18T16:04:00.390Z,82.10
2023-04-18T16:06:27.456Z,82.64
2023-04-18T16:08:54.238Z,82.76
2023-04-18T16:11:21.886Z,82.92
2023-04-18T16:13:48.593Z,83.00
2023-04-18T16:16:15.358Z,83.51
2023-04-18T16:18:42.045Z,82.93
2023-04-18T16:21:08.764Z,82.66
2023-04-18T16:23:35.381Z,83.33
2023-04-18T16:26:02.028Z,83.65
2023-04-18T16:28:30.031Z,83.89
2023-04-18T16:30:56.773Z,83.58
2023-04-18T16:33:26.097Z,83.85
2023-04-18T16:35:53.130Z,83.96
2023-04-18T16:38:23.517Z,83.91
2023-04-18T16:40:50.216Z,83.90
2023-04-18T16:43:16.868Z,84.10
2023-04-18T16:45:43.616Z,84.14
2023-04-18T16:48:10.357Z,84.07
2023-04-18T16:50:37.121Z,83.97
2023-04-18T16:53:03.793Z,83.88
2023-04-18T16:55:30.517Z,83.90
2023-04-18T16:57:57.182Z,84.03
2023-04-18T17:00:23.914Z,84.17
2023-04-18T17:02:50.958Z,83.99
2023-04-18T17:05:18.752Z,84.30
2023-04-18T17:07:46.084Z,84.35
2023-04-18T17:10:12.814Z,84.15
2023-04-18T17:12:39.494Z,84.24
2023-04-18T17:15:07.060Z,84.37
2023-04-18T17:17:34.802Z,84.10
2023-04-18T17:20:01.560Z,84.01
2023-04-18T17:22:29.287Z,83.81
2023-04-18T17:24:56.030Z,83.77
2023-04-18T17:27:22.798Z,83.63
2023-04-18T17:29:49.922Z,83.66
2023-04-18T17:32:16.588Z,83.53
2023-04-18T17:34:43.307Z,83.46
2023-04-18T17:37:11.145Z,83.41
2023-04-18T17:39:37.809Z,83.32
2023-04-18T17:42:04.445Z,83.28
2023-04-18T17:44:31.128Z,83.55
2023-04-18T17:46:57.774Z,83.86
2023-04-18T17:49:24.499Z,84.05
2023-04-18T17:51:51.209Z,84.06
2023-04-18T17:54:17.832Z,84.02
2023-04-18T17:56:45.514Z,84.12
2023-04-18T17:59:12.594Z,84.15
2023-04-18T18:01:39.707Z,84.15
2023-04-18T18:04:06.474Z,84.03
2023-04-18T18:06:33.178Z,84.13
2023-04-18T18:08:59.829Z,84.25
2023-04-18T18:11:27.780Z,84.35
2023-04-18T18:13:55.672Z,84.41
2023-04-18T18:16:23.914Z,84.53
2023-04-18T18:18:51.082Z,84.60
2023-04-18T18:21:18.112Z,84.49
2023-04-18T18:23:44.720Z,84.52
2023-04-18T18:26:11.925Z,84.53
2023-04-18T18:28:38.703Z,84.39
2023-04-18T18:31:05.523Z,84.45
2023-04-18T18:33:32.150Z,84.40
2023-04-18T18:35:59.579Z,84.52
2023-04-18T18:38:26.364Z,84.52
2023-04-18T18:40:53.133Z,84.45
2023-04-18T18:43:19.886Z,84.41
2023-04-18T18:45:46.623Z,84.48
2023-04-18T18:48:14.764Z,84.56
2023-04-18T18:50:41.982Z,84.58
2023-04-18T18:53:08.624Z,84.62
2023-04-18T18:55:35.303Z,84.68
2023-04-18T18:58:02.589Z,84.56
2023-04-18T19:00:29.308Z,84.51
2023-04-18T19:02:56.081Z,84.43
2023-04-18T19:05:22.858Z,84.45
2023-04-18T19:07:51.427Z,84.59
2023-04-18T19:10:18.141Z,84.43
2023-04-18T19:12:44.843Z,84.21
2023-04-18T19:15:11.921Z,83.94
2023-04-18T19:17:38.656Z,83.87
2023-04-18T19:20:05.991Z,83.91
2023-04-18T19:22:32.680Z,84.06
2023-04-18T19:25:00.696Z,84.29
2023-04-18T19:27:27.356Z,84.29
2023-04-18T19:29:54.079Z,84.28
2023-04-18T19:32:20.998Z,84.24
2023-04-18T19:34:47.712Z,84.09
2023-04-18T19:37:14.389Z,83.67
2023-04-18T19:39:41.025Z,83.78
2023-04-18T19:42:08.534Z,83.99
2023-04-18T19:44:35.298Z,84.02
2023-04-18T19:47:01.938Z,84.03
2023-04-18T19:49:28.645Z,84.13
2023-04-18T19:51:55.321Z,84.23
2023-04-18T19:54:22.277Z,84.12
2023-04-18T19:56:48.970Z,83.99
2023-04-18T19:59:16.011Z,83.99
2023-04-18T20:01:42.993Z,84.04
2023-04-18T20:04:09.930Z,84.32
2023-04-18T20:06:36.753Z,84.24
2023-04-18T20:09:04.155Z,84.16
2023-04-18T20:11:30.777Z,84.20
2023-04-18T20:13:57.420Z,84.24
2023-04-18T20:16:24.070Z,84.26
2023-04-18T20:18:52.295Z,84.33
2023-04-18T20:21:20.170Z,84.42
2023-04-18T20:23:46.891Z,84.51
2023-04-18T20:26:13.596Z,84.62
2023-04-18T20:28:40.267Z,84.75
2023-04-18T20:31:07.233Z,84.71
2023-04-18T20:33:34.383Z,84.84
2023-04-18T20:36:01.009Z,84.93
2023-04-18T20:38:29.716Z,84.97
2023-04-18T20:40:58.836Z,84.96
2023-04-18T20:43:25.879Z,85.09
2023-04-18T20:45:53.846Z,85.07
2023-04-18T20:48:21.003Z,84.93
2023-04-18T20:50:51.436Z,84.78
2023-04-18T20:53:21.792Z,84.68
2023-04-18T20:55:48.694Z,84.53
2023-04-18T20:58:15.865Z,84.59
2023-04-18T21:00:43.715Z,84.58
2023-04-18T21:03:13.001Z,84.55
2023-04-18T21:05:39.777Z,84.61
2023-04-18T21:08:06.459Z,84.68
2023-04-18T21:10:33.207Z,84.77
2023-04-18T21:13:00.080Z,84.31
2023-04-18T21:15:26.810Z,84.11
2023-04-18T21:17:53.505Z,84.10
2023-04-18T21:20:20.308Z,84.26
2023-04-18T21:22:46.983Z,84.18
2023-04-18T21:25:14.105Z,84.04
2023-04-18T21:27:40.849Z,83.87
2023-04-18T21:30:08.114Z,83.85
2023-04-18T21:32:34.851Z,83.76
2023-04-18T21:35:01.750Z,83.86
2023-04-18T21:37:29.009Z,84.15
2023-04-18T21:39:55.760Z,84.17
2023-04-18T21:42:22.403Z,84.33
2023-04-18T21:44:49.107Z,84.36
2023-04-18T21:47:15.864Z,84.39
2023-04-18T21:49:42.805Z,84.37
2023-04-18T21:52:09.600Z,84.42
2023-04-18T21:54:36.256Z,84.63
2023-04-18T21:57:02.945Z,84.84
2023-04-18T21:59:29.973Z,85.01
2023-04-18T22:01:56.688Z,85.27
2023-04-18T22:04:26.190Z,85.42
2023-04-18T22:06:56.978Z,85.25
2023-04-18T22:09:23.587Z,85.38
2023-04-18T22:11:51.855Z,85.55
2023-04-18T22:14:20.091Z,85.62
2023-04-18T22:16:46.785Z,85.81
2023-04-18T22:19:14.150Z,85.77
2023-04-18T22:21:40.896Z,85.73
2023-04-18T22:24:08.211Z,85.75
2023-04-18T22:26:34.851Z,85.67
2023-04-18T22:29:01.573Z,85.75
2023-04-18T22:31:28.333Z,86.08
2023-04-18T22:33:55.043Z,86.16
2023-04-18T22:36:21.749Z,86.08
2023-04-18T22:38:48.345Z,85.79
2023-04-18T22:41:14.968Z,85.60
2023-04-18T22:43:41.658Z,85.75
2023-04-18T22:46:08.356Z,85.76
2023-04-18T22:48:35.310Z,85.74
2023-04-18T22:51:02.000Z,85.63
2023-04-18T22:53:28.681Z,85.76
2023-04-18T22:55:55.380Z,85.86
2023-04-18T22:58:22.055Z,85.63
2023-04-18T23:00:48.715Z,85.50
2023-04-18T23:03:15.433Z,85.56
2023-04-18T23:05:42.221Z,85.48
2023-04-18T23:08:08.901Z,85.60
2023-04-18T23:10:35.670Z,85.50
2023-04-18T23:13:02.403Z,85.01
2023-04-18T23:15:29.059Z,84.53
2023-04-18T23:17:55.738Z,84.60
2023-04-18T23:20:23.989Z,85.12
2023-04-18T23:22:51.800Z,85.57
2023-04-18T23:25:19.574Z,85.81
2023-04-18T23:27:46.941Z,86.09
2023-04-18T23:30:13.565Z,86.20
2023-04-18T23:32:40.293Z,86.23
2023-04-18T23:35:07.167Z,86.30
2023-04-18T23:37:33.822Z,86.16
2023-04-18T23:40:00.562Z,85.57
2023-04-18T23:42:27.520Z,85.12
2023-04-18T23:44:54.668Z,84.95
2023-04-18T23:47:21.996Z,84.89
2023-04-18T23:49:48.842Z,84.85
2023-04-18T23:52:15.566Z,85.22
2023-04-18T23:54:42.254Z,85.37
2023-04-18T23:57:08.885Z,85.69
2023-04-18T23:59:36.539Z,85.76
